createdAt,value
2018-07-12T00:01:21.404Z,22.61
2018-07-12T00:03:48.066Z,22.59
2018-07-12T00:06:14.737Z,22.76
2018-07-12T00:08:41.205Z,22.66
2018-07-12T00:11:07.766Z,22.66
2018-07-12T00:13:34.540Z,22.43
2018-07-12T00:16:01.138Z,22.38
2018-07-12T00:18:27.795Z,22.54
2018-07-12T00:20:54.458Z,22.47
2018-07-12T00:23:21.053Z,22.55
2018-07-12T00:25:47.698Z,22.47
2018-07-12T00:28:14.326Z,22.38
2018-07-12T00:30:40.961Z,22.27
2018-07-12T00:33:07.877Z,22.43
2018-07-12T00:35:34.546Z,22.34
2018-07-12T00:38:01.192Z,22.25
2018-07-12T00:40:27.817Z,22.22
2018-07-12T00:42:54.596Z,22.16
2018-07-12T00:45:21.188Z,22.10
2018-07-12T00:47:47.721Z,22.14
2018-07-12T00:50:14.383Z,22.28
2018-07-12T00:52:41.007Z,22.43
2018-07-12T00:55:07.677Z,22.40
2018-07-12T00:57:34.277Z,22.42
2018-07-12T01:00:00.918Z,22.43
2018-07-12T01:02:27.553Z,22.48
2018-07-12T01:04:54.180Z,22.40
2018-07-12T01:07:20.870Z,22.01
2018-07-12T01:09:47.474Z,22.10
2018-07-12T01:12:14.092Z,22.16
2018-07-12T01:14:40.783Z,22.03
2018-07-12T01:17:07.505Z,22.08
2018-07-12T01:19:34.025Z,22.20
2018-07-12T01:22:00.646Z,22.15
2018-07-12T01:24:27.446Z,22.16
2018-07-12T01:26:54.124Z,22.14
2018-07-12T01:29:20.762Z,22.16
2018-07-12T01:31:47.443Z,22.08
2018-07-12T01:34:14.150Z,21.91
2018-07-12T01:36:40.779Z,21.92
2018-07-12T01:39:07.602Z,22.00
2018-07-12T01:41:34.265Z,21.96
2018-07-12T01:44:00.903Z,21.97
2018-07-12T01:46:27.572Z,22.01
2018-07-12T01:48:54.277Z,22.03
2018-07-12T01:51:20.906Z,21.99
2018-07-12T01:53:47.545Z,21.90
2018-07-12T01:56:14.222Z,21.82
2018-07-12T01:58:40.727Z,21.85
2018-07-12T02:01:07.354Z,21.82
2018-07-12T02:03:33.997Z,21.84
2018-07-12T02:06:00.634Z,21.89
2018-07-12T02:08:27.298Z,21.81
2018-07-12T02:10:53.918Z,21.81
2018-07-12T02:13:20.541Z,21.91
2018-07-12T02:15:47.183Z,21.91
2018-07-12T02:18:13.822Z,21.83
2018-07-12T02:20:40.464Z,21.73
2018-07-12T02:23:07.084Z,21.60
2018-07-12T02:25:33.729Z,21.63
2018-07-12T02:28:00.362Z,21.61
2018-07-12T02:30:26.998Z,21.67
2018-07-12T02:32:53.647Z,21.61
2018-07-12T02:35:20.237Z,21.51
2018-07-12T02:37:46.906Z,21.46
2018-07-12T02:40:13.550Z,21.30
2018-07-12T02:42:40.216Z,21.44
2018-07-12T02:45:06.820Z,21.40
2018-07-12T02:47:33.457Z,21.51
2018-07-12T02:50:00.133Z,21.62
2018-07-12T02:52:26.767Z,21.30
2018-07-12T02:54:53.471Z,21.12
2018-07-12T02:57:20.104Z,21.26
2018-07-12T02:59:46.742Z,21.38
2018-07-12T03:02:13.390Z,21.24
2018-07-12T03:04:40.017Z,21.20
2018-07-12T03:07:06.704Z,21.42
2018-07-12T03:09:33.401Z,21.56
2018-07-12T03:11:59.940Z,21.69
2018-07-12T03:14:26.573Z,21.74
2018-07-12T03:16:53.062Z,21.81
2018-07-12T03:19:19.746Z,21.79
2018-07-12T03:21:46.416Z,21.83
2018-07-12T03:24:13.122Z,21.83
2018-07-12T03:26:39.770Z,21.91
2018-07-12T03:29:06.530Z,21.92
2018-07-12T03:31:33.231Z,21.92
2018-07-12T03:33:59.865Z,21.88
2018-07-12T03:36:26.546Z,21.91
2018-07-12T03:38:53.242Z,21.92
2018-07-12T03:41:19.893Z,21.97
2018-07-12T03:43:46.526Z,21.97
2018-07-12T03:46:13.166Z,21.93
2018-07-12T03:48:39.797Z,21.96
2018-07-12T03:51:06.469Z,22.03
2018-07-12T03:53:33.103Z,21.97
2018-07-12T03:55:59.702Z,22.00
2018-07-12T03:58:26.278Z,22.07
2018-07-12T04:00:52.973Z,22.19
2018-07-12T04:03:19.623Z,22.29
2018-07-12T04:05:46.257Z,22.37
2018-07-12T04:08:12.889Z,22.31
2018-07-12T04:10:39.530Z,22.40
2018-07-12T04:13:06.196Z,22.43
2018-07-12T04:15:32.798Z,22.43
2018-07-12T04:17:59.443Z,22.45
2018-07-12T04:20:26.077Z,22.50
2018-07-12T04:22:52.562Z,22.42
2018-07-12T04:25:19.251Z,22.36
2018-07-12T04:27:45.892Z,22.33
2018-07-12T04:30:12.525Z,22.39
2018-07-12T04:32:39.300Z,22.28
2018-07-12T04:35:06.003Z,22.36
2018-07-12T04:37:32.629Z,22.55
2018-07-12T04:39:59.306Z,22.68
2018-07-12T04:42:26.019Z,22.76
2018-07-12T04:44:52.645Z,22.81
2018-07-12T04:47:19.202Z,22.80
2018-07-12T04:49:45.923Z,22.77
2018-07-12T04:52:12.558Z,22.75
2018-07-12T04:54:39.228Z,22.74
2018-07-12T04:57:05.943Z,22.77
2018-07-12T04:59:32.622Z,22.88
2018-07-12T05:01:59.351Z,23.04
2018-07-12T05:04:25.800Z,22.83
2018-07-12T05:06:52.676Z,23.00
2018-07-12T05:09:19.358Z,23.01
2018-07-12T05:11:45.826Z,23.10
2018-07-12T05:14:12.304Z,23.22
2018-07-12T05:16:38.787Z,23.29
2018-07-12T05:19:05.564Z,23.46
2018-07-12T05:21:32.195Z,23.49
2018-07-12T05:23:58.976Z,23.54
2018-07-12T05:26:25.586Z,23.55
2018-07-12T05:28:52.240Z,23.56
2018-07-12T05:31:18.898Z,23.60
2018-07-12T05:33:45.602Z,23.71
2018-07-12T05:36:25.896Z,23.62
2018-07-12T05:38:54.234Z,23.61
2018-07-12T05:41:22.410Z,23.60
2018-07-12T05:43:50.854Z,23.69
2018-07-12T05:46:19.059Z,23.79
2018-07-12T05:48:47.336Z,23.71
2018-07-12T05:51:15.853Z,23.67
2018-07-12T05:53:44.082Z,23.75
2018-07-12T05:56:12.349Z,23.73
2018-07-12T05:58:40.781Z,23.83
2018-07-12T06:02:20.880Z,24.06
2018-07-12T06:04:49.462Z,24.02
2018-07-12T06:07:23.171Z,24.10
2018-07-12T06:09:51.646Z,24.15
2018-07-12T06:12:20.440Z,24.32
2018-07-12T06:14:49.137Z,24.27
2018-07-12T06:17:17.553Z,24.23
2018-07-12T06:19:45.998Z,24.40
2018-07-12T06:22:13.981Z,24.50
2018-07-12T06:24:41.978Z,24.53
2018-07-12T06:27:09.849Z,24.60
2018-07-12T06:29:38.169Z,24.72
2018-07-12T06:32:06.763Z,24.78
2018-07-12T06:34:36.080Z,24.84
2018-07-12T06:37:04.669Z,24.81
2018-07-12T06:39:33.018Z,24.72
2018-07-12T06:42:01.323Z,24.78
2018-07-12T06:44:29.569Z,25.09
2018-07-12T06:46:57.805Z,25.19
2018-07-12T06:49:26.009Z,25.24
2018-07-12T06:51:54.122Z,25.20
2018-07-12T06:54:22.461Z,25.40
2018-07-12T06:56:50.726Z,25.58
2018-07-12T06:59:18.866Z,25.78
2018-07-12T07:01:47.086Z,25.73
2018-07-12T07:04:15.458Z,25.80
2018-07-12T07:06:43.872Z,25.83
2018-07-12T07:09:12.318Z,25.88
2018-07-12T07:11:40.918Z,25.85
2018-07-12T07:14:09.226Z,25.80
2018-07-12T07:16:37.658Z,25.78
2018-07-12T07:19:06.071Z,25.86
2018-07-12T07:21:34.553Z,25.96
2018-07-12T07:24:02.902Z,26.27
2018-07-12T07:26:31.066Z,26.30
2018-07-12T07:28:59.497Z,26.40
2018-07-12T07:31:27.830Z,26.33
2018-07-12T07:33:55.993Z,26.41
2018-07-12T07:36:24.414Z,26.20
2018-07-12T07:38:52.757Z,26.33
2018-07-12T07:41:21.133Z,26.47
2018-07-12T07:43:49.426Z,26.69
2018-07-12T07:46:17.790Z,26.46
2018-07-12T07:48:46.165Z,26.72
2018-07-12T07:51:14.655Z,26.79
2018-07-12T07:53:42.838Z,27.02
2018-07-12T07:56:11.238Z,27.02
2018-07-12T07:58:39.571Z,27.10
2018-07-12T08:01:08.049Z,27.00
2018-07-12T08:03:36.461Z,26.88
2018-07-12T08:06:04.815Z,26.89
2018-07-12T08:08:33.189Z,26.96
2018-07-12T08:11:01.398Z,27.10
2018-07-12T08:13:29.741Z,27.22
2018-07-12T08:15:57.674Z,27.31
2018-07-12T08:18:26.118Z,27.13
2018-07-12T08:20:54.453Z,27.11
2018-07-12T08:23:23.071Z,27.14
2018-07-12T08:25:51.655Z,27.06
2018-07-12T08:28:28.362Z,27.11
2018-07-12T08:30:56.629Z,27.15
2018-07-12T08:33:24.969Z,27.23
2018-07-12T08:35:53.123Z,27.23
2018-07-12T08:38:21.446Z,27.47
2018-07-12T08:40:49.788Z,27.45
2018-07-12T08:43:18.149Z,27.50
2018-07-12T08:45:46.245Z,27.48
2018-07-12T08:48:14.198Z,27.76
2018-07-12T08:50:42.255Z,27.78
2018-07-12T08:53:10.300Z,27.72
2018-07-12T08:55:38.199Z,28.00
2018-07-12T08:58:06.130Z,28.10
2018-07-12T09:00:34.173Z,28.21
2018-07-12T09:03:02.220Z,28.05
2018-07-12T09:05:30.134Z,28.07
2018-07-12T09:07:58.200Z,28.17
2018-07-12T09:10:26.352Z,28.19
2018-07-12T09:12:54.561Z,28.16
2018-07-12T09:15:22.898Z,28.01
2018-07-12T09:17:51.054Z,27.97
2018-07-12T09:20:19.071Z,27.86
2018-07-12T09:22:47.047Z,27.93
2018-07-12T09:25:14.958Z,28.03
2018-07-12T09:27:42.854Z,28.12
2018-07-12T09:30:10.866Z,28.18
2018-07-12T09:32:38.794Z,28.22
2018-07-12T09:35:06.738Z,28.40
2018-07-12T09:37:34.670Z,28.48
2018-07-12T09:40:02.684Z,28.42
2018-07-12T09:42:30.617Z,28.36
2018-07-12T09:44:58.593Z,28.25
2018-07-12T09:47:26.548Z,28.19
2018-07-12T09:49:54.482Z,28.25
2018-07-12T09:52:33.894Z,28.40
2018-07-12T09:55:02.224Z,28.52
2018-07-12T09:57:41.866Z,28.63
2018-07-12T10:00:09.674Z,28.75
2018-07-12T10:02:43.172Z,28.67
2018-07-12T10:06:14.516Z,28.67
2018-07-12T10:08:47.901Z,28.72
2018-07-12T10:11:21.631Z,28.75
2018-07-12T10:13:55.758Z,28.74
2018-07-12T10:16:29.515Z,28.74
2018-07-12T10:18:58.207Z,28.91
2018-07-12T10:21:26.196Z,29.00
2018-07-12T10:23:54.113Z,29.00
2018-07-12T10:26:22.006Z,28.97
2018-07-12T10:28:49.970Z,29.07
2018-07-12T10:31:17.938Z,29.13
2018-07-12T10:33:45.847Z,29.12
2018-07-12T10:36:13.731Z,29.14
2018-07-12T10:38:41.613Z,29.18
2018-07-12T10:41:09.509Z,29.18
2018-07-12T10:43:37.444Z,29.13
2018-07-12T10:46:05.697Z,29.29
2018-07-12T10:48:33.601Z,29.02
2018-07-12T10:51:01.543Z,28.99
2018-07-12T10:53:29.516Z,29.03
2018-07-12T10:55:57.415Z,29.06
2018-07-12T10:58:25.307Z,29.17
2018-07-12T11:00:53.218Z,29.19
2018-07-12T11:03:21.122Z,29.30
2018-07-12T11:05:49.080Z,29.24
2018-07-12T11:08:17.011Z,29.39
2018-07-12T11:10:44.893Z,29.39
2018-07-12T11:13:18.086Z,29.40
2018-07-12T11:15:46.640Z,29.36
2018-07-12T11:18:14.586Z,29.44
2018-07-12T11:20:42.665Z,29.47
2018-07-12T11:23:10.546Z,29.46
2018-07-12T11:25:38.415Z,29.60
2018-07-12T11:28:06.413Z,29.62
2018-07-12T11:30:34.392Z,29.76
2018-07-12T11:33:12.198Z,29.94
2018-07-12T11:35:40.162Z,29.79
2018-07-12T11:38:08.047Z,29.74
2018-07-12T11:40:35.950Z,29.97
2018-07-12T11:43:03.925Z,29.96
2018-07-12T11:45:31.865Z,29.57
2018-07-12T11:47:59.746Z,29.50
2018-07-12T11:50:27.621Z,29.55
2018-07-12T11:52:55.592Z,29.51
2018-07-12T11:55:23.557Z,29.68
2018-07-12T11:57:51.569Z,29.65
2018-07-12T12:00:19.462Z,29.66
2018-07-12T12:02:47.475Z,29.64
2018-07-12T12:05:15.377Z,29.63
2018-07-12T12:07:43.293Z,29.75
2018-07-12T12:10:11.246Z,29.65
2018-07-12T12:12:39.166Z,29.74
2018-07-12T12:15:07.073Z,29.89
2018-07-12T12:17:34.973Z,29.84
2018-07-12T12:20:02.881Z,29.80
2018-07-12T12:22:30.795Z,30.04
2018-07-12T12:24:58.754Z,30.01
2018-07-12T12:27:26.681Z,30.11
2018-07-12T12:29:54.525Z,30.08
2018-07-12T12:32:22.465Z,29.93
2018-07-12T12:34:50.781Z,29.92
2018-07-12T12:37:19.053Z,30.19
2018-07-12T12:39:47.016Z,30.18
2018-07-12T12:42:15.498Z,30.36
2018-07-12T12:44:43.784Z,30.28
2018-07-12T12:47:12.191Z,30.23
2018-07-12T12:49:40.530Z,30.15
2018-07-12T12:52:08.708Z,30.21
2018-07-12T12:54:36.881Z,30.32
2018-07-12T12:57:05.158Z,30.27
2018-07-12T12:59:33.546Z,29.96
2018-07-12T13:02:01.916Z,29.84
2018-07-12T13:04:30.291Z,29.84
2018-07-12T13:06:58.810Z,29.94
2018-07-12T13:09:27.040Z,30.29
2018-07-12T13:11:55.425Z,30.16
2018-07-12T13:14:23.651Z,29.89
2018-07-12T13:16:52.073Z,29.95
2018-07-12T13:19:20.271Z,29.72
2018-07-12T13:21:48.678Z,30.03
2018-07-12T13:24:17.006Z,30.08
2018-07-12T13:26:45.387Z,30.05
2018-07-12T13:29:13.657Z,30.20
2018-07-12T13:31:42.189Z,30.34
2018-07-12T13:34:10.625Z,30.43
2018-07-12T13:36:38.930Z,30.49
2018-07-12T13:39:08.360Z,30.53
2018-07-12T13:41:36.826Z,30.80
2018-07-12T13:44:17.891Z,30.62
2018-07-12T13:46:47.176Z,30.56
2018-07-12T13:49:15.573Z,30.55
2018-07-12T13:51:44.705Z,30.57
2018-07-12T13:54:13.101Z,30.59
2018-07-12T13:56:41.420Z,30.67
2018-07-12T13:59:10.113Z,30.58
2018-07-12T14:01:38.452Z,30.82
2018-07-12T14:04:07.742Z,30.76
2018-07-12T14:06:36.190Z,30.86
2018-07-12T14:09:05.434Z,30.68
2018-07-12T14:11:33.916Z,30.78
2018-07-12T14:14:02.378Z,30.68
2018-07-12T14:16:30.657Z,30.43
2018-07-12T14:18:59.189Z,30.54
2018-07-12T14:21:27.617Z,30.55
2018-07-12T14:23:55.786Z,30.72
2018-07-12T14:26:24.107Z,30.94
2018-07-12T14:28:52.442Z,30.65
2018-07-12T14:31:20.817Z,30.49
2018-07-12T14:33:49.185Z,30.58
2018-07-12T14:36:17.587Z,30.58
2018-07-12T14:38:45.857Z,30.61
2018-07-12T14:41:14.215Z,30.56
2018-07-12T14:43:42.502Z,30.76
2018-07-12T14:46:10.630Z,30.48
2018-07-12T14:48:38.594Z,30.33
2018-07-12T14:51:06.595Z,30.35
2018-07-12T14:53:34.546Z,30.14
2018-07-12T14:56:02.488Z,30.34
2018-07-12T14:58:30.410Z,30.23
2018-07-12T15:00:58.331Z,30.26
2018-07-12T15:03:26.237Z,30.13
2018-07-12T15:05:54.149Z,30.31
2018-07-12T15:08:22.050Z,30.22
2018-07-12T15:10:49.969Z,30.08
2018-07-12T15:13:17.984Z,30.09
2018-07-12T15:15:45.965Z,29.99
2018-07-12T15:18:13.889Z,30.02
2018-07-12T15:20:41.920Z,30.06
2018-07-12T15:23:09.859Z,30.25
2018-07-12T15:25:37.760Z,30.24
2018-07-12T15:28:05.937Z,30.37
2018-07-12T15:30:33.697Z,30.20
2018-07-12T15:33:01.617Z,30.34
2018-07-12T15:35:29.548Z,30.19
2018-07-12T15:37:57.518Z,30.16
2018-07-12T15:40:25.422Z,30.35
2018-07-12T15:42:53.384Z,30.32
2018-07-12T15:45:21.269Z,30.14
2018-07-12T15:47:49.183Z,30.11
2018-07-12T15:50:21.814Z,30.35
2018-07-12T15:52:49.872Z,30.32
2018-07-12T15:55:17.816Z,30.45
2018-07-12T15:57:45.911Z,30.06
2018-07-12T16:00:13.837Z,30.16
2018-07-12T16:02:41.760Z,30.43
2018-07-12T16:05:09.753Z,30.59
2018-07-12T16:07:37.701Z,30.61
2018-07-12T16:10:05.669Z,30.48
2018-07-12T16:12:33.566Z,30.24
2018-07-12T16:15:01.444Z,30.28
2018-07-12T16:17:29.367Z,30.13
2018-07-12T16:19:57.830Z,30.23
2018-07-12T16:22:25.951Z,30.45
2018-07-12T16:24:53.882Z,30.35
2018-07-12T16:27:21.959Z,30.34
2018-07-12T16:29:49.920Z,30.18
2018-07-12T16:32:18.273Z,30.15
2018-07-12T16:34:46.705Z,30.24
2018-07-12T16:37:14.668Z,29.99
2018-07-12T16:39:42.957Z,30.00
2018-07-12T16:42:11.283Z,29.68
2018-07-12T16:44:39.622Z,29.87
2018-07-12T16:47:08.233Z,30.01
2018-07-12T16:49:36.469Z,29.89
2018-07-12T16:52:04.812Z,29.85
2018-07-12T16:54:33.243Z,29.77
2018-07-12T16:57:01.706Z,29.56
2018-07-12T16:59:30.095Z,29.72
2018-07-12T17:01:58.358Z,29.62
2018-07-12T17:04:26.633Z,29.45
2018-07-12T17:06:54.905Z,29.51
2018-07-12T17:09:23.283Z,29.28
2018-07-12T17:11:51.870Z,29.28
2018-07-12T17:14:20.056Z,29.22
2018-07-12T17:16:48.420Z,29.07
2018-07-12T17:19:16.802Z,29.04
2018-07-12T17:21:45.074Z,28.89
2018-07-12T17:24:13.350Z,28.87
2018-07-12T17:26:41.617Z,28.82
2018-07-12T17:29:09.893Z,28.76
2018-07-12T17:31:37.969Z,28.68
2018-07-12T17:34:06.146Z,28.69
2018-07-12T17:36:34.620Z,28.61
2018-07-12T17:39:03.114Z,28.52
2018-07-12T17:41:31.474Z,28.40
2018-07-12T17:43:59.754Z,28.39
2018-07-12T17:46:28.236Z,28.33
2018-07-12T17:48:56.300Z,28.27
2018-07-12T17:51:24.586Z,28.40
2018-07-12T17:53:52.854Z,28.25
2018-07-12T17:56:21.205Z,28.21
2018-07-12T17:58:49.564Z,28.13
2018-07-12T18:01:17.798Z,28.06
2018-07-12T18:03:46.066Z,28.01
2018-07-12T18:06:14.239Z,27.91
2018-07-12T18:08:42.526Z,27.86
2018-07-12T18:11:10.997Z,27.89
2018-07-12T18:13:39.152Z,27.80
2018-07-12T18:16:07.545Z,27.72
2018-07-12T18:18:35.722Z,27.73
2018-07-12T18:21:05.061Z,27.72
2018-07-12T18:23:33.400Z,27.71
2018-07-12T18:26:01.292Z,27.62
2018-07-12T18:28:29.183Z,27.56
2018-07-12T18:30:57.066Z,27.47
2018-07-12T18:33:24.958Z,27.55
2018-07-12T18:35:52.829Z,27.55
2018-07-12T18:38:20.712Z,27.50
2018-07-12T18:40:48.601Z,27.51
2018-07-12T18:43:16.692Z,27.47
2018-07-12T18:45:44.597Z,27.42
2018-07-12T18:48:13.533Z,27.35
2018-07-12T18:50:42.561Z,27.28
2018-07-12T18:53:10.857Z,27.25
2018-07-12T18:55:39.668Z,27.20
2018-07-12T18:58:07.669Z,27.16
2018-07-12T19:00:35.658Z,27.15
2018-07-12T19:03:03.550Z,27.23
2018-07-12T19:05:31.405Z,27.12
2018-07-12T19:07:59.300Z,27.10
2018-07-12T19:10:27.209Z,27.10
2018-07-12T19:12:55.178Z,27.02
2018-07-12T19:15:23.131Z,27.01
2018-07-12T19:17:51.022Z,26.99
2018-07-12T19:20:18.938Z,26.96
2018-07-12T19:22:46.898Z,26.88
2018-07-12T19:25:14.855Z,26.84
2018-07-12T19:27:42.748Z,26.91
2018-07-12T19:30:11.090Z,26.84
2018-07-12T19:32:39.469Z,26.68
2018-07-12T19:35:07.852Z,26.68
2018-07-12T19:37:36.122Z,26.53
2018-07-12T19:40:04.506Z,26.48
2018-07-12T19:42:32.895Z,26.42
2018-07-12T19:45:01.358Z,26.31
2018-07-12T19:47:29.745Z,26.22
2018-07-12T19:49:58.009Z,26.08
2018-07-12T19:52:26.396Z,26.11
2018-07-12T19:54:54.677Z,26.08
2018-07-12T19:57:22.945Z,26.01
2018-07-12T19:59:51.228Z,26.01
2018-07-12T20:02:19.489Z,25.86
2018-07-12T20:04:47.467Z,25.73
2018-07-12T20:07:15.733Z,25.80
2018-07-12T20:09:44.008Z,25.83
2018-07-12T20:12:12.156Z,25.84
2018-07-12T20:14:40.449Z,25.84
2018-07-12T20:17:08.741Z,25.77
2018-07-12T20:19:37.010Z,25.74
2018-07-12T20:22:05.393Z,25.79
2018-07-12T20:24:33.661Z,25.82
2018-07-12T20:27:02.041Z,25.80
2018-07-12T20:29:30.321Z,25.85
2018-07-12T20:31:58.793Z,25.81
2018-07-12T20:34:27.074Z,25.82
2018-07-12T20:36:55.459Z,25.79
2018-07-12T20:39:23.730Z,25.77
2018-07-12T20:41:52.217Z,25.79
2018-07-12T20:44:20.350Z,25.81
2018-07-12T20:46:48.653Z,25.79
2018-07-12T20:49:16.829Z,25.88
2018-07-12T20:51:45.217Z,25.84
2018-07-12T20:54:13.485Z,25.68
2018-07-12T20:56:41.868Z,25.55
2018-07-12T20:59:10.337Z,25.55
2018-07-12T21:01:38.626Z,25.37
2018-07-12T21:04:06.898Z,25.37
2018-07-12T21:06:35.070Z,25.47
2018-07-12T21:09:04.227Z,25.48
2018-07-12T21:11:32.633Z,25.50
2018-07-12T21:14:00.714Z,25.47
2018-07-12T21:16:28.989Z,25.57
2018-07-12T21:18:57.257Z,25.57
2018-07-12T21:21:25.139Z,25.58
2018-07-12T21:23:53.415Z,25.42
2018-07-12T21:26:21.791Z,25.50
2018-07-12T21:28:49.952Z,25.39
2018-07-12T21:31:18.131Z,25.30
2018-07-12T21:33:46.402Z,25.27
2018-07-12T21:36:14.679Z,25.30
2018-07-12T21:38:42.950Z,25.37
2018-07-12T21:41:11.227Z,25.30
2018-07-12T21:43:39.497Z,25.27
2018-07-12T21:46:07.771Z,25.29
2018-07-12T21:48:36.049Z,25.21
2018-07-12T21:51:04.212Z,25.08
2018-07-12T21:53:32.506Z,25.03
2018-07-12T21:56:00.765Z,24.85
2018-07-12T21:58:29.153Z,24.69
2018-07-12T22:00:57.529Z,24.74
2018-07-12T22:03:25.792Z,24.70
2018-07-12T22:05:54.081Z,24.82
2018-07-12T22:08:28.712Z,24.84
2018-07-12T22:11:00.986Z,24.79
2018-07-12T22:13:30.121Z,24.64
2018-07-12T22:15:58.453Z,24.55
2018-07-12T22:18:26.734Z,24.62
2018-07-12T22:20:55.101Z,24.59
